createdAt,value
2019-01-22T00:02:13.057Z,-4.80
2019-01-22T00:04:40.037Z,-4.69
2019-01-22T00:07:07.056Z,-4.72
2019-01-22T00:09:34.046Z,-4.88
2019-01-22T00:12:01.150Z,-4.93
2019-01-22T00:14:28.114Z,-4.91
2019-01-22T00:16:55.049Z,-4.93
2019-01-22T00:19:21.978Z,-4.93
2019-01-22T00:21:49.030Z,-4.91
2019-01-22T00:24:15.944Z,-4.88
2019-01-22T00:26:43.042Z,-4.94
2019-01-22T00:29:09.979Z,-4.88
2019-01-22T00:31:36.888Z,-4.97
2019-01-22T00:34:03.779Z,-5.04
2019-01-22T00:36:30.684Z,-5.07
2019-01-22T00:38:57.562Z,-5.11
2019-01-22T00:41:24.470Z,-5.13
2019-01-22T00:43:51.654Z,-5.07
2019-01-22T00:46:18.645Z,-5.11
2019-01-22T00:48:45.609Z,-5.07
2019-01-22T00:51:12.607Z,-5.08
2019-01-22T00:53:39.517Z,-5.17
2019-01-22T00:56:06.453Z,-5.18
2019-01-22T00:58:33.324Z,-5.16
2019-01-22T01:01:00.293Z,-5.21
2019-01-22T01:03:27.212Z,-5.15
2019-01-22T01:05:54.158Z,-5.16
2019-01-22T01:08:21.069Z,-5.22
2019-01-22T01:10:48.025Z,-5.24
2019-01-22T01:13:14.966Z,-5.25
2019-01-22T01:15:42.264Z,-5.17
2019-01-22T01:18:09.157Z,-5.29
2019-01-22T01:20:36.103Z,-5.25
2019-01-22T01:23:03.005Z,-5.31
2019-01-22T01:25:29.960Z,-5.38
2019-01-22T01:27:56.856Z,-5.42
2019-01-22T01:30:24.970Z,-5.42
2019-01-22T01:32:52.359Z,-5.50
2019-01-22T01:35:19.267Z,-5.47
2019-01-22T01:37:46.205Z,-5.44
2019-01-22T01:40:14.712Z,-5.41
2019-01-22T01:42:41.671Z,-5.46
2019-01-22T01:45:08.790Z,-5.49
2019-01-22T01:47:35.730Z,-5.48
2019-01-22T01:50:03.491Z,-5.39
2019-01-22T01:52:30.409Z,-5.46
2019-01-22T01:54:57.322Z,-5.54
2019-01-22T01:57:24.295Z,-5.48
2019-01-22T01:59:51.192Z,-5.52
2019-01-22T02:02:18.159Z,-5.54
2019-01-22T02:04:45.264Z,-5.52
2019-01-22T02:07:12.277Z,-5.52
2019-01-22T02:09:39.230Z,-5.54
2019-01-22T02:12:06.190Z,-5.59
2019-01-22T02:14:44.748Z,-5.62
2019-01-22T02:17:38.762Z,-5.83
2019-01-22T02:20:44.755Z,-5.82
2019-01-22T02:23:36.473Z,-5.67
2019-01-22T02:26:31.605Z,-5.67
2019-01-22T02:29:29.175Z,-5.67
2019-01-22T02:32:21.382Z,-5.71
2019-01-22T02:34:59.332Z,-5.62
2019-01-22T02:37:58.554Z,-5.72
2019-01-22T02:40:39.380Z,-5.73
2019-01-22T02:43:31.051Z,-5.70
2019-01-22T02:46:31.537Z,-5.73
2019-01-22T02:49:36.098Z,-5.63
2019-01-22T02:52:39.255Z,-5.76
2019-01-22T02:55:29.455Z,-5.73
2019-01-22T02:58:26.562Z,-5.57
2019-01-22T03:01:49.292Z,-5.71
2019-01-22T03:04:58.218Z,-5.84
2019-01-22T03:07:49.713Z,-5.89
2019-01-22T03:10:51.349Z,-5.85
2019-01-22T03:14:05.107Z,-5.85
2019-01-22T03:17:13.734Z,-5.79
2019-01-22T03:20:12.289Z,-5.83
2019-01-22T03:23:24.176Z,-5.90
2019-01-22T03:26:24.532Z,-5.90
2019-01-22T03:29:05.503Z,-6.06
2019-01-22T03:32:02.051Z,-6.04
2019-01-22T03:34:49.081Z,-6.00
2019-01-22T03:37:56.792Z,-6.00
2019-01-22T03:40:52.810Z,-5.97
2019-01-22T03:43:54.152Z,-6.04
2019-01-22T03:46:53.285Z,-6.02
2019-01-22T03:49:28.705Z,-6.04
2019-01-22T03:52:49.317Z,-6.04
2019-01-22T03:55:49.801Z,-5.99
2019-01-22T03:58:16.782Z,-6.12
2019-01-22T04:00:51.629Z,-6.12
2019-01-22T04:03:19.622Z,-5.96
2019-01-22T04:05:48.898Z,-5.96
2019-01-22T04:08:15.856Z,-6.10
2019-01-22T04:11:22.184Z,-6.07
2019-01-22T04:13:49.214Z,-6.06
2019-01-22T04:16:16.141Z,-6.06
2019-01-22T04:18:43.153Z,-6.03
2019-01-22T04:21:13.067Z,-6.06
2019-01-22T04:24:15.772Z,-6.13
2019-01-22T04:27:05.401Z,-6.16
2019-01-22T04:30:11.485Z,-6.13
2019-01-22T04:32:58.452Z,-6.13
2019-01-22T04:36:06.163Z,-6.18
2019-01-22T04:39:04.694Z,-6.18
2019-01-22T04:42:09.260Z,-6.17
2019-01-22T04:44:50.473Z,-6.18
2019-01-22T04:47:50.419Z,-6.22
2019-01-22T04:50:40.276Z,-6.25
2019-01-22T04:54:09.622Z,-6.22
2019-01-22T04:57:11.659Z,-6.22
2019-01-22T05:00:16.308Z,-6.19
2019-01-22T05:03:21.684Z,-6.24
2019-01-22T05:06:23.328Z,-6.24
2019-01-22T05:09:36.630Z,-6.21
2019-01-22T05:12:42.527Z,-6.21
2019-01-22T05:16:09.142Z,-6.15
2019-01-22T05:19:12.402Z,-6.15
2019-01-22T05:21:59.978Z,-6.19
2019-01-22T05:25:12.400Z,-6.19
2019-01-22T05:28:28.887Z,-6.30
2019-01-22T05:31:40.217Z,-6.16
2019-01-22T05:34:43.864Z,-6.16
2019-01-22T05:37:31.788Z,-6.35
2019-01-22T05:40:40.491Z,-6.44
2019-01-22T05:43:37.899Z,-6.32
2019-01-22T05:46:12.088Z,-6.50
2019-01-22T05:48:52.076Z,-6.50
2019-01-22T05:51:31.059Z,-6.22
2019-01-22T05:54:39.630Z,-6.22
2019-01-22T05:57:30.281Z,-6.35
2019-01-22T06:00:18.895Z,-6.35
2019-01-22T06:03:18.812Z,-6.25
2019-01-22T06:06:39.989Z,-6.28
2019-01-22T06:09:40.328Z,-6.28
2019-01-22T06:12:50.513Z,-6.36
2019-01-22T06:15:26.449Z,-6.36
2019-01-22T06:18:19.001Z,-6.36
2019-01-22T06:20:59.316Z,-6.46
2019-01-22T06:24:06.778Z,-6.55
2019-01-22T06:26:52.726Z,-6.44
2019-01-22T06:30:06.159Z,-6.53
2019-01-22T06:33:15.793Z,-6.53
2019-01-22T06:36:37.830Z,-6.57
2019-01-22T06:39:36.168Z,-6.57
2019-01-22T06:42:50.277Z,-6.64
2019-01-22T06:45:57.958Z,-6.51
2019-01-22T06:49:21.804Z,-6.45
2019-01-22T06:52:45.883Z,-6.37
2019-01-22T06:55:55.951Z,-6.63
2019-01-22T06:59:21.058Z,-6.63
2019-01-22T07:02:12.826Z,-6.46
2019-01-22T07:05:03.339Z,-6.43
2019-01-22T07:08:16.878Z,-6.43
2019-01-22T07:11:04.383Z,-6.54
2019-01-22T07:14:31.233Z,-6.39
2019-01-22T07:17:26.249Z,-6.41
2019-01-22T07:20:52.999Z,-6.38
2019-01-22T07:24:02.951Z,-6.38
2019-01-22T07:27:01.493Z,-6.30
2019-01-22T07:29:59.332Z,-6.25
2019-01-22T07:32:55.591Z,-6.25
2019-01-22T07:35:29.484Z,-6.36
2019-01-22T07:38:17.308Z,-6.35
2019-01-22T07:41:13.645Z,-6.13
2019-01-22T07:43:51.555Z,-6.13
2019-01-22T07:47:08.430Z,-6.25
2019-01-22T07:50:07.119Z,-6.18
2019-01-22T07:52:58.138Z,-6.21
2019-01-22T07:55:49.159Z,-5.93
2019-01-22T07:58:40.903Z,-6.01
2019-01-22T08:01:19.738Z,-6.01
2019-01-22T08:04:53.205Z,-5.87
2019-01-22T08:07:54.304Z,-5.57
2019-01-22T08:11:04.608Z,-5.68
2019-01-22T08:13:52.574Z,-5.68
2019-01-22T08:16:58.515Z,-5.52
2019-01-22T08:20:03.675Z,-5.59
2019-01-22T08:23:05.462Z,-5.54
2019-01-22T08:26:03.597Z,-5.37
2019-01-22T08:28:47.776Z,-5.23
2019-01-22T08:31:36.647Z,-5.22
2019-01-22T08:34:45.418Z,-5.10
2019-01-22T08:38:08.123Z,-5.10
2019-01-22T08:41:18.646Z,-4.97
2019-01-22T08:44:06.818Z,-4.76
2019-01-22T08:47:21.658Z,-4.76
2019-01-22T08:50:14.928Z,-4.60
2019-01-22T08:52:55.833Z,-4.40
2019-01-22T08:56:03.264Z,-4.27
2019-01-22T08:58:59.261Z,-4.38
2019-01-22T09:01:51.286Z,-4.31
2019-01-22T09:04:51.050Z,-4.19
2019-01-22T09:07:58.398Z,-3.91
2019-01-22T09:11:09.426Z,-3.66
2019-01-22T09:14:14.541Z,-3.74
2019-01-22T09:17:33.571Z,-3.70
2019-01-22T09:20:33.159Z,-3.49
2019-01-22T09:23:25.689Z,-3.51
2019-01-22T09:26:06.877Z,-3.46
2019-01-22T09:29:17.883Z,-3.47
2019-01-22T09:32:21.797Z,-3.25
2019-01-22T09:35:26.453Z,-3.20
2019-01-22T09:38:00.083Z,-3.15
2019-01-22T09:40:27.049Z,-3.01
2019-01-22T09:42:53.981Z,-2.90
2019-01-22T09:45:20.944Z,-2.71
2019-01-22T09:47:47.878Z,-2.65
2019-01-22T09:50:14.825Z,-2.49
2019-01-22T09:52:41.878Z,-2.49
2019-01-22T09:55:09.986Z,-2.39
2019-01-22T09:57:37.341Z,-2.36
2019-01-22T10:00:05.678Z,-2.20
2019-01-22T10:02:32.625Z,-2.15
2019-01-22T10:04:59.551Z,-2.05
2019-01-22T10:07:26.503Z,-2.01
2019-01-22T10:09:53.489Z,-1.97
2019-01-22T10:12:20.524Z,-1.81
2019-01-22T10:14:47.440Z,-1.58
2019-01-22T10:17:31.433Z,-1.61
2019-01-22T10:20:26.977Z,-1.38
2019-01-22T10:23:06.267Z,-1.41
2019-01-22T10:25:33.663Z,-1.40
2019-01-22T10:28:01.408Z,-1.34
2019-01-22T10:30:28.514Z,-1.26
2019-01-22T10:32:55.448Z,-1.17
2019-01-22T10:35:22.444Z,-1.03
2019-01-22T10:37:49.395Z,-1.00
2019-01-22T10:40:18.167Z,-1.00
2019-01-22T10:42:45.147Z,-0.88
2019-01-22T10:45:14.202Z,-0.72
2019-01-22T10:47:41.148Z,-0.65
2019-01-22T10:50:08.801Z,-0.57
2019-01-22T10:52:37.027Z,-0.42
2019-01-22T10:55:05.410Z,-0.26
2019-01-22T10:57:32.344Z,-0.26
2019-01-22T10:59:59.289Z,-0.21
2019-01-22T11:02:26.333Z,-0.28
2019-01-22T11:04:53.228Z,-0.12
2019-01-22T11:07:20.199Z,0.01
2019-01-22T11:09:47.084Z,-0.03
2019-01-22T11:12:14.088Z,0.04
2019-01-22T11:14:41.045Z,0.02
2019-01-22T11:17:08.054Z,0.11
2019-01-22T11:19:34.958Z,0.27
2019-01-22T11:22:01.904Z,0.35
2019-01-22T11:24:30.410Z,0.32
2019-01-22T11:26:57.559Z,0.55
2019-01-22T11:29:24.695Z,0.62
2019-01-22T11:31:51.591Z,0.77
2019-01-22T11:34:18.546Z,0.84
2019-01-22T11:36:45.548Z,0.65
2019-01-22T11:39:12.478Z,0.72
2019-01-22T11:41:39.379Z,0.92
2019-01-22T11:44:06.742Z,0.90
2019-01-22T11:46:33.630Z,0.86
2019-01-22T11:49:03.633Z,1.06
2019-01-22T11:51:30.548Z,1.05
2019-01-22T11:53:57.970Z,0.97
2019-01-22T11:56:25.037Z,0.97
2019-01-22T11:58:51.987Z,1.09
2019-01-22T12:01:18.914Z,1.21
2019-01-22T12:03:45.939Z,1.16
2019-01-22T12:06:12.926Z,1.18
2019-01-22T12:08:40.120Z,1.18
2019-01-22T12:11:07.084Z,1.09
2019-01-22T12:13:34.007Z,1.00
2019-01-22T12:16:01.198Z,0.92
2019-01-22T12:18:28.296Z,1.18
2019-01-22T12:20:55.300Z,1.17
2019-01-22T12:23:22.228Z,1.19
2019-01-22T12:25:49.138Z,1.30
2019-01-22T12:28:16.237Z,1.16
2019-01-22T12:30:43.260Z,1.17
2019-01-22T12:33:10.657Z,1.23
2019-01-22T12:35:37.592Z,1.13
2019-01-22T12:38:05.002Z,1.13
2019-01-22T12:40:31.926Z,1.15
2019-01-22T12:43:02.151Z,1.03
2019-01-22T12:45:35.398Z,1.08
2019-01-22T12:48:02.614Z,1.10
2019-01-22T12:50:29.937Z,0.92
2019-01-22T12:52:57.011Z,0.92
2019-01-22T12:55:23.982Z,0.96
2019-01-22T12:57:50.862Z,0.90
2019-01-22T13:00:22.962Z,1.00
2019-01-22T13:02:49.894Z,1.01
2019-01-22T13:05:21.574Z,1.09
2019-01-22T13:07:48.479Z,1.05
2019-01-22T13:10:15.501Z,1.10
2019-01-22T13:12:42.399Z,1.08
2019-01-22T13:15:09.396Z,1.28
2019-01-22T13:17:36.308Z,1.14
2019-01-22T13:20:05.856Z,1.25
2019-01-22T13:22:32.771Z,1.09
2019-01-22T13:24:59.805Z,0.93
2019-01-22T13:27:26.712Z,0.90
2019-01-22T13:29:53.668Z,0.92
2019-01-22T13:32:20.580Z,0.72
2019-01-22T13:34:47.609Z,0.98
2019-01-22T13:37:14.533Z,0.84
2019-01-22T13:39:41.508Z,0.51
2019-01-22T13:42:08.408Z,0.76
2019-01-22T13:44:35.419Z,0.89
2019-01-22T13:47:02.325Z,0.95
2019-01-22T13:49:29.254Z,0.94
2019-01-22T13:51:56.159Z,0.60
2019-01-22T13:54:23.143Z,0.49
2019-01-22T13:56:50.075Z,0.48
2019-01-22T13:59:17.111Z,0.58
2019-01-22T14:01:44.007Z,0.41
2019-01-22T14:04:10.979Z,-0.02
2019-01-22T14:06:37.951Z,0.12
2019-01-22T14:09:06.856Z,0.19
2019-01-22T14:11:34.062Z,0.20
2019-01-22T14:14:00.979Z,0.18
2019-01-22T14:16:27.959Z,0.11
2019-01-22T14:18:54.854Z,0.23
2019-01-22T14:21:21.808Z,0.27
2019-01-22T14:23:48.711Z,0.28
2019-01-22T14:26:15.833Z,0.36
2019-01-22T14:28:42.755Z,0.42
2019-01-22T14:31:09.735Z,0.33
2019-01-22T14:33:36.675Z,0.44
2019-01-22T14:36:04.345Z,0.45
2019-01-22T14:38:31.284Z,0.20
2019-01-22T14:40:58.204Z,0.04
2019-01-22T14:43:25.105Z,-0.14
2019-01-22T14:45:52.043Z,-0.12
2019-01-22T14:48:19.012Z,-0.08
2019-01-22T14:50:45.933Z,-0.09
2019-01-22T14:53:13.144Z,0.01
2019-01-22T14:55:40.136Z,0.08
2019-01-22T14:58:07.103Z,0.27
2019-01-22T15:00:34.049Z,0.40
2019-01-22T15:03:01.072Z,0.34
2019-01-22T15:05:28.168Z,0.32
2019-01-22T15:07:55.090Z,0.37
2019-01-22T15:10:22.069Z,0.40
2019-01-22T15:12:50.919Z,0.22
2019-01-22T15:15:18.196Z,0.07
2019-01-22T15:17:45.125Z,0.25
2019-01-22T15:20:20.000Z,0.29
2019-01-22T15:22:47.137Z,0.26
2019-01-22T15:25:14.075Z,0.05
2019-01-22T15:27:41.026Z,0.12
2019-01-22T15:30:13.998Z,0.13
2019-01-22T15:32:41.040Z,0.01
2019-01-22T15:35:08.993Z,-0.06
2019-01-22T15:37:35.938Z,-0.15
2019-01-22T15:40:04.900Z,-0.14
2019-01-22T15:42:31.992Z,-0.10
2019-01-22T15:45:05.884Z,-0.20
2019-01-22T15:47:27.976Z,-0.22
2019-01-22T15:49:54.879Z,-0.10
2019-01-22T15:52:21.803Z,-0.27
2019-01-22T15:54:48.704Z,-0.23
2019-01-22T15:57:15.857Z,-0.16
2019-01-22T15:59:42.842Z,-0.18
2019-01-22T16:02:09.897Z,-0.35
2019-01-22T16:04:36.789Z,-0.34
2019-01-22T16:07:03.853Z,-0.39
2019-01-22T16:09:30.748Z,-0.48
2019-01-22T16:11:57.846Z,-0.63
2019-01-22T16:14:24.766Z,-0.80
2019-01-22T16:16:51.703Z,-0.70
2019-01-22T16:19:18.632Z,-0.73
2019-01-22T16:21:45.861Z,-0.82
2019-01-22T16:24:12.778Z,-0.73
2019-01-22T16:26:39.754Z,-0.78
2019-01-22T16:29:07.002Z,-0.99
2019-01-22T16:31:33.950Z,-0.94
2019-01-22T16:34:02.285Z,-1.02
2019-01-22T16:36:29.615Z,-1.11
2019-01-22T16:38:56.588Z,-1.12
2019-01-22T16:41:23.519Z,-1.17
2019-01-22T16:43:50.580Z,-1.40
2019-01-22T16:46:17.504Z,-1.34
2019-01-22T16:48:44.550Z,-1.32
2019-01-22T16:51:11.563Z,-1.35
2019-01-22T16:53:38.506Z,-1.41
2019-01-22T16:56:05.511Z,-1.47
2019-01-22T16:58:32.583Z,-1.60
2019-01-22T17:00:59.512Z,-1.65
2019-01-22T17:03:26.472Z,-1.73
2019-01-22T17:05:53.482Z,-1.68
2019-01-22T17:08:20.437Z,-1.75
2019-01-22T17:10:47.408Z,-1.74
2019-01-22T17:13:14.417Z,-1.75
2019-01-22T17:15:41.329Z,-1.83
2019-01-22T17:18:08.635Z,-1.95
2019-01-22T17:20:38.282Z,-1.85
2019-01-22T17:23:05.315Z,-1.92
2019-01-22T17:25:32.311Z,-1.90
2019-01-22T17:27:59.441Z,-2.00
2019-01-22T17:30:26.603Z,-1.84
2019-01-22T17:33:09.561Z,-1.92
2019-01-22T17:35:39.178Z,-2.11
2019-01-22T17:38:06.123Z,-2.19
2019-01-22T17:40:33.043Z,-2.26
2019-01-22T17:43:00.026Z,-2.11
2019-01-22T17:45:27.017Z,-2.20
2019-01-22T17:47:53.932Z,-2.11
2019-01-22T17:50:20.864Z,-2.16
2019-01-22T17:52:47.784Z,-2.23
2019-01-22T17:55:14.710Z,-2.31
2019-01-22T17:57:41.905Z,-2.36
2019-01-22T18:00:11.633Z,-2.35
2019-01-22T18:02:38.539Z,-2.31
2019-01-22T18:05:07.011Z,-2.43
2019-01-22T18:07:34.005Z,-2.45
2019-01-22T18:10:00.930Z,-2.43
2019-01-22T18:12:27.653Z,-2.51
2019-01-22T18:14:55.026Z,-2.48
2019-01-22T18:17:22.257Z,-2.55
2019-01-22T18:19:49.221Z,-2.55
2019-01-22T18:22:16.114Z,-2.65
2019-01-22T18:24:43.037Z,-2.65
2019-01-22T18:27:09.959Z,-2.50
2019-01-22T18:29:36.894Z,-2.63
2019-01-22T18:32:03.814Z,-2.58
2019-01-22T18:34:30.733Z,-2.59
2019-01-22T18:36:57.617Z,-2.59
2019-01-22T18:39:24.570Z,-2.56
2019-01-22T18:41:51.482Z,-2.69
2019-01-22T18:44:18.637Z,-2.74
2019-01-22T18:46:45.529Z,-2.63
2019-01-22T18:49:12.484Z,-2.58
2019-01-22T18:51:39.539Z,-2.79
2019-01-22T18:54:06.475Z,-2.58
2019-01-22T18:56:33.524Z,-2.52
2019-01-22T18:59:00.416Z,-2.49
2019-01-22T19:01:27.357Z,-2.52
2019-01-22T19:03:54.251Z,-2.67
2019-01-22T19:06:21.211Z,-2.76
2019-01-22T19:08:50.450Z,-2.65
2019-01-22T19:11:17.372Z,-2.51
2019-01-22T19:13:44.293Z,-2.57
2019-01-22T19:16:11.284Z,-2.65
2019-01-22T19:18:38.258Z,-2.56
2019-01-22T19:21:05.187Z,-2.47
2019-01-22T19:23:32.188Z,-2.59
2019-01-22T19:25:59.150Z,-2.58
2019-01-22T19:28:26.137Z,-2.65
2019-01-22T19:30:53.062Z,-2.61
2019-01-22T19:33:19.979Z,-2.57
2019-01-22T19:35:47.713Z,-2.64
2019-01-22T19:38:14.627Z,-2.64
2019-01-22T19:40:41.594Z,-2.50
2019-01-22T19:43:08.640Z,-2.70
2019-01-22T19:45:35.853Z,-2.52
2019-01-22T19:48:02.797Z,-2.59
2019-01-22T19:50:29.736Z,-2.52
2019-01-22T19:52:56.797Z,-2.58
2019-01-22T19:55:23.736Z,-2.57
2019-01-22T19:57:50.792Z,-2.52
2019-01-22T20:00:32.172Z,-2.54
2019-01-22T20:02:59.403Z,-2.43
2019-01-22T20:05:27.038Z,-2.39
2019-01-22T20:07:56.020Z,-2.52
2019-01-22T20:10:22.957Z,-2.43
2019-01-22T20:12:49.864Z,-2.34
2019-01-22T20:15:16.916Z,-2.31
2019-01-22T20:17:43.915Z,-2.33
2019-01-22T20:20:13.510Z,-2.43
2019-01-22T20:22:41.003Z,-2.46
2019-01-22T20:25:08.680Z,-2.54
2019-01-22T20:27:35.639Z,-2.42
2019-01-22T20:30:04.088Z,-2.33
2019-01-22T20:32:30.998Z,-2.38
2019-01-22T20:34:58.059Z,-2.39
2019-01-22T20:37:24.985Z,-2.41
2019-01-22T20:39:51.907Z,-2.44
2019-01-22T20:42:18.826Z,-2.37
2019-01-22T20:44:45.774Z,-2.34
2019-01-22T20:47:12.831Z,-2.29
2019-01-22T20:49:39.791Z,-2.26
2019-01-22T20:52:06.792Z,-2.44
2019-01-22T20:54:33.699Z,-2.42
2019-01-22T20:57:00.621Z,-2.42
2019-01-22T20:59:27.528Z,-2.37
2019-01-22T21:01:54.516Z,-2.44
2019-01-22T21:04:21.395Z,-2.40
2019-01-22T21:06:48.339Z,-2.35
2019-01-22T21:09:15.258Z,-2.42
2019-01-22T21:11:42.316Z,-2.38
2019-01-22T21:14:09.359Z,-2.24
2019-01-22T21:16:36.479Z,-2.46
2019-01-22T21:19:03.372Z,-2.33
2019-01-22T21:21:30.296Z,-2.43
2019-01-22T21:23:57.303Z,-2.35
2019-01-22T21:26:24.295Z,-2.33
2019-01-22T21:28:51.312Z,-2.43
2019-01-22T21:31:18.443Z,-2.32
2019-01-22T21:33:45.359Z,-2.45
2019-01-22T21:36:12.329Z,-2.40
2019-01-22T21:38:39.273Z,-2.37
2019-01-22T21:41:06.283Z,-2.32
2019-01-22T21:43:33.217Z,-2.42
2019-01-22T21:46:00.125Z,-2.26
2019-01-22T21:48:27.047Z,-2.27
2019-01-22T21:50:53.968Z,-2.37
2019-01-22T21:53:20.881Z,-2.46
2019-01-22T21:55:47.772Z,-2.45
2019-01-22T21:58:14.743Z,-2.27
2019-01-22T22:00:41.633Z,-2.27
2019-01-22T22:03:08.598Z,-2.30
2019-01-22T22:05:35.558Z,-2.38
2019-01-22T22:08:02.994Z,-2.49
2019-01-22T22:10:29.928Z,-2.56
2019-01-22T22:12:56.845Z,-2.53
2019-01-22T22:15:23.981Z,-2.66
2019-01-22T22:17:50.905Z,-2.58
2019-01-22T22:20:17.987Z,-2.44
2019-01-22T22:22:44.954Z,-2.92
2019-01-22T22:25:13.556Z,-2.70
2019-01-22T22:27:40.595Z,-2.74
2019-01-22T22:30:11.699Z,-2.74
2019-01-22T22:32:38.629Z,-2.59
2019-01-22T22:35:05.660Z,-2.80
2019-01-22T22:37:32.574Z,-2.81
2019-01-22T22:39:59.462Z,-2.82
2019-01-22T22:42:26.452Z,-2.89
2019-01-22T22:44:53.370Z,-2.94
2019-01-22T22:47:20.326Z,-3.03
2019-01-22T22:49:47.273Z,-3.01
2019-01-22T22:52:14.142Z,-3.18
2019-01-22T22:54:41.074Z,-3.01
2019-01-22T22:57:07.977Z,-3.05
2019-01-22T22:59:34.908Z,-3.27
2019-01-22T23:02:01.836Z,-3.11
2019-01-22T23:04:28.798Z,-3.20
2019-01-22T23:06:55.750Z,-3.23
2019-01-22T23:09:22.680Z,-3.28
2019-01-22T23:11:49.737Z,-3.17
2019-01-22T23:14:16.658Z,-3.23
2019-01-22T23:16:43.541Z,-3.16
2019-01-22T23:19:10.479Z,-3.31
2019-01-22T23:21:37.377Z,-3.21
2019-01-22T23:24:04.488Z,-3.06
2019-01-22T23:26:31.377Z,-3.25
2019-01-22T23:28:58.350Z,-3.41
2019-01-22T23:31:25.291Z,-3.37
2019-01-22T23:33:52.320Z,-3.34
2019-01-22T23:36:19.222Z,-3.33
2019-01-22T23:38:46.148Z,-3.41
2019-01-22T23:41:13.046Z,-3.40
2019-01-22T23:43:39.973Z,-3.52
2019-01-22T23:46:06.865Z,-3.35
2019-01-22T23:48:33.860Z,-3.36
2019-01-22T23:51:00.760Z,-3.37
2019-01-22T23:53:27.699Z,-3.47
2019-01-22T23:55:54.610Z,-3.48
2019-01-22T23:58:21.577Z,-3.46
